Florence, MT (59833)

6:28 AM MDT on March 29, 2015 (GMT -0600)
Remington Ridge subdivision | | Change Station
CLOSE
Current Station
Personal Weather Station
Location: Florence, MT
Elevation: 3622 ft
Nearby Weather Stations

Elev 3622 ft 46.63 °N, 114.00 °W | Updated 1 minute ago

Clear
Clear
32.2 °F
Feels Like 26 °F
N
6.8
Wind Variable Wind from East

Today
High -- | Low -- °F
--% Chance of Precip.
Yesterday
High -- | Low -- °F
Precip. -- in
7:21 AM 8:01 PM
Waxing Gibbous, 71% visible
Pressure 30.37 in
Visibility 10.0 miles
Clouds Clear
Windchill 26 °F
Dew Point 26 °F
Humidity 78%
Rainfall 0.00 in
Snow Depth Not available.
UV 0 out of 12
Pollen 6.10 out of 12
Air Quality Not available.
Flu Activity Not available.
METAR KMSO 291153Z AUTO 15004KT 10SM CLR 02/M02 A3032 RMK AO2 SLP282 70001 T00171022 10056 20006 55003

More Conditions Fewer Conditions

Pressure 30.37 in
Visibility 10.0 miles
Clouds Clear
Windchill 26 °F
Dew Point 26 °F
Humidity 78%
Rainfall 0.00 in
Snow Depth Not available.
UV 0 out of 12
Pollen 6.10 out of 12
Air Quality Not available.
Flu Activity Not available.
METAR KMSO 291153Z AUTO 15004KT 10SM CLR 02/M02 A3032 RMK AO2 SLP282 70001 T00171022 10056 20006 55003

More Conditions Fewer Conditions

10-Day Weather Forecast

Almanac

Astronomy

Mar. 29, 2015 Rise Set
Actual Time
Civil Twilight
Nautical Twilight
Astronomical Twilight
Moon
Length of Visible Light
Length of Day
Tomorrow will be .
, % of the Moon is Illuminated

Today's Extremes

State Highs State Lows

Community

WunderPhotos

Upload Photos

1,809,229 photos uploaded!

WunderBlogs® & News

Nearby

Air Quality

  Air Quality AQ Index Pollutant
Not available.

Snow Depth

Station Depth Elevation

Earthquake Activity

City Distance Mag. Time & Date
Minimum magnitude displayed is 2.5.

Coastal Water Temperatures

Place Temperature

Stations

Nearby Weather Stations

Station Location Temp. Windchill Dew Point Humidity Wind Precip. Elev Updated Type